Rick Pumphrey — WDF8497 — position and weather

sailwx.info

Track history (hours):
 
Tides and Currents Weather Stations Pressure Air Temp Water Temp Dewpoint Dewpoint Depression Visibility Wind Speed Wind Dir Waves Ship Positions

Rick Pumphrey

Owner: Blessey Enterprises, Inc., Harahan, LA. More information available from US FCC via Universal Licensing System and Coast Guard Vessel Documentation Center.

Last reported at 2018-Feb-23 04:30 UTC. Time now 2018-Feb-23 10:32 UTC.
Position N 29°43' W 095°01'.

; draft 2.4 m.

Type: Tug. MMSI: 367495480.

Date/timePositionNaut miles runAvg speedWind from/ knotsBaromVisibWave heightAir tempDewpointWater temp
2018-Feb-23 04:30N 29°43' W 095°01'3 6.0
2018-Feb-23 04:00N 29°41' W 094°59'3 6.6
2018-Feb-23 03:30N 29°38' W 094°58'1 2.7
2018-Feb-23 03:00N 29°37' W 094°59'2 4.2
2018-Feb-23 02:30N 29°37' W 095°01'0 0.8
2018-Feb-23 02:00N 29°37' W 095°01'0 0.0
2018-Feb-23 01:30N 29°37' W 095°01'0 0.0
2018-Feb-23 00:52N 29°37' W 095°01'0 0.0
2018-Feb-23 00:29N 29°37' W 095°01'0 0.0
2018-Feb-22 23:59N 29°37' W 095°01'0 0.0
2018-Feb-22 23:29N 29°37' W 095°01'0 0.0
2018-Feb-22 22:58N 29°37' W 095°01'0 0.0
2018-Feb-22 22:29N 29°37' W 095°01'0 0.0
2018-Feb-22 22:00N 29°37' W 095°01'0 0.0
2018-Feb-22 21:26N 29°37' W 095°01'0 0.0
2018-Feb-22 20:57N 29°37' W 095°01'0 0.0
2018-Feb-22 20:30N 29°37' W 095°01'0 0.0
2018-Feb-22 20:00N 29°37' W 095°01'0 0.0
2018-Feb-22 19:30N 29°37' W 095°01'0 0.0
2018-Feb-22 19:00N 29°37' W 095°01'0 0.0
2018-Feb-22 18:30N 29°37' W 095°01'0 0.0
2018-Feb-22 18:00N 29°37' W 095°01'0 0.0
2018-Feb-22 17:30N 29°37' W 095°01'0 0.0
2018-Feb-22 17:00N 29°37' W 095°01'0 0.2
2018-Feb-22 16:28N 29°37' W 095°01'0 0.0
2018-Feb-22 16:00N 29°37' W 095°01'0 0.0
2018-Feb-22 15:29N 29°37' W 095°01'0 0.8
2018-Feb-22 15:00N 29°37' W 095°01'3 6.1
2018-Feb-22 14:30N 29°37' W 094°58'4 7.3
2018-Feb-22 14:00N 29°41' W 094°59'3 6.7
2018-Feb-22 13:29N 29°42' W 095°02'0 0.0
2018-Feb-21 22:32N 29°42' W 095°02'0 0.0
2018-Feb-21 22:29N 29°42' W 095°02'0 0.0
2018-Feb-21 22:00N 29°42' W 095°02'6 0.8
2018-Feb-21 14:34N 29°37' W 095°01'0 0.0
2018-Feb-21 14:30N 29°37' W 095°01'0 0.0
2018-Feb-21 14:00N 29°37' W 095°01'0 0.0
2018-Feb-21 13:27N 29°37' W 095°01'0 0.0
2018-Feb-21 13:00N 29°37' W 095°01'0 0.0
2018-Feb-21 12:30N 29°37' W 095°01'0 0.0
2018-Feb-21 12:00N 29°37' W 095°01'0 0.0
2018-Feb-21 11:30N 29°37' W 095°01'0 0.0
2018-Feb-21 11:00N 29°37' W 095°01'0 0.0
2018-Feb-21 10:30N 29°37' W 095°01'0 0.0
2018-Feb-21 10:00N 29°37' W 095°01'0 0.0
2018-Feb-21 09:30N 29°37' W 095°01'0 0.0
2018-Feb-21 09:00N 29°37' W 095°01'0 0.0
2018-Feb-21 08:28N 29°37' W 095°01'0 0.0
2018-Feb-21 08:00N 29°37' W 095°01'0 0.0
2018-Feb-21 07:30N 29°37' W 095°01'0 0.0
2018-Feb-21 07:00N 29°37' W 095°01'0 0.0
2018-Feb-21 06:30N 29°37' W 095°01'0 0.0
2018-Feb-21 06:00N 29°37' W 095°01'0 0.0
2018-Feb-21 05:27N 29°37' W 095°01'0 0.0
2018-Feb-21 04:58N 29°37' W 095°01'0 0.0
2018-Feb-21 04:27N 29°37' W 095°01'0 0.0
2018-Feb-21 03:59N 29°37' W 095°01'0 0.0
2018-Feb-21 03:30N 29°37' W 095°01'0 0.0
2018-Feb-21 03:00N 29°37' W 095°01'0 0.0
2018-Feb-21 02:30N 29°37' W 095°01'0 0.0
2018-Feb-21 02:00N 29°37' W 095°01'0 0.0
2018-Feb-21 01:30N 29°37' W 095°01'0 0.0
2018-Feb-21 01:00N 29°37' W 095°01'0 0.0
2018-Feb-21 00:30N 29°37' W 095°01'0 0.0
2018-Feb-21 00:00N 29°37' W 095°01'0 0.0
2018-Feb-20 23:30N 29°37' W 095°01'0 0.0
2018-Feb-20 23:00N 29°37' W 095°01'0 0.0
2018-Feb-20 22:30N 29°37' W 095°01'0 0.0
2018-Feb-20 22:00N 29°37' W 095°01'0 0.0
2018-Feb-20 21:30N 29°37' W 095°01'0 0.0
2018-Feb-20 21:00N 29°37' W 095°01'0 0.0
2018-Feb-20 20:30N 29°37' W 095°01'0 0.0
2018-Feb-20 20:00N 29°37' W 095°01'0 0.0
2018-Feb-20 19:30N 29°37' W 095°01'0 0.0
2018-Feb-20 19:00N 29°37' W 095°01'0 0.0
2018-Feb-20 18:30N 29°37' W 095°01'0 0.0
2018-Feb-20 18:00N 29°37' W 095°01'3 5.8
2018-Feb-20 17:30N 29°37' W 094°58'3 6.3
2018-Feb-20 17:00N 29°40' W 094°59'3 6.5
2018-Feb-20 16:30N 29°42' W 095°01'1 1.8
2018-Feb-20 15:59N 29°42' W 095°02'0 0.0
2018-Feb-20 14:04N 29°42' W 095°02'0 0.0
2018-Feb-20 14:00N 29°42' W 095°02'0 0.0
2018-Feb-20 13:30N 29°42' W 095°02'0 0.0
2018-Feb-20 08:21N 29°42' W 095°02'0 0.0
2018-Feb-20 07:59N 29°42' W 095°02'0 0.0
2018-Feb-20 07:29N 29°42' W 095°02'0 0.0
2018-Feb-20 07:00N 29°42' W 095°02'0 0.0
2018-Feb-20 06:30N 29°42' W 095°02'0 0.0
2018-Feb-20 06:00N 29°42' W 095°02'0 0.0
2018-Feb-20 05:30N 29°42' W 095°02'0 0.0
2018-Feb-20 05:00N 29°42' W 095°02'0 0.0
2018-Feb-20 04:29N 29°42' W 095°02'0 0.0
2018-Feb-20 03:57N 29°42' W 095°02'0 0.0
2018-Feb-20 03:30N 29°42' W 095°02'0 0.0
2018-Feb-20 03:00N 29°42' W 095°02'0 0.0
2018-Feb-20 02:28N 29°42' W 095°02'0 0.0
2018-Feb-20 01:59N 29°42' W 095°02'0 0.0
2018-Feb-20 01:28N 29°42' W 095°02'0 0.0
2018-Feb-20 00:45N 29°42' W 095°02'0 0.0
2018-Feb-20 00:30N 29°42' W 095°02'0 0.0
2018-Feb-19 23:59N 29°42' W 095°02'0 0.0
2018-Feb-19 23:30N 29°42' W 095°02'0 0.0
2018-Feb-19 23:00N 29°42' W 095°02'0 0.0
2018-Feb-19 22:28N 29°42' W 095°02'0 0.0
2018-Feb-19 22:00N 29°42' W 095°02'0 0.0
2018-Feb-19 21:21N 29°42' W 095°02'0 0.0
2018-Feb-19 20:58N 29°42' W 095°02'0 0.0
2018-Feb-19 20:30N 29°42' W 095°02'0 0.0
2018-Feb-19 19:57N 29°42' W 095°02'0 0.0
2018-Feb-19 18:44N 29°42' W 095°02'0 0.0
2018-Feb-19 18:29N 29°42' W 095°02'0 0.0
2018-Feb-19 17:54N 29°42' W 095°02'0 0.0
2018-Feb-19 17:26N 29°42' W 095°02'0 0.0
2018-Feb-19 17:00N 29°42' W 095°02'0 0.0
2018-Feb-19 16:29N 29°42' W 095°02'0 0.0
2018-Feb-19 16:00N 29°42' W 095°02'0 0.0
2018-Feb-19 15:30N 29°42' W 095°02'0 0.0
2018-Feb-19 14:59N 29°42' W 095°02'0 0.0
2018-Feb-19 14:20N 29°42' W 095°02'0 0.2
2018-Feb-19 13:59N 29°42' W 095°02'1 2.8
2018-Feb-19 13:28N 29°44' W 095°02'4 5.5
2018-Feb-19 12:40N 29°47' W 095°04'0 0.5
2018-Feb-19 12:18N 29°47' W 095°05'0 0.3
2018-Feb-19 11:58N 29°47' W 095°05'0 0.0
2018-Feb-19 10:57N 29°47' W 095°05'0 0.9
2018-Feb-19 10:24N 29°47' W 095°04'3 5.0
2018-Feb-19 09:48N 29°44' W 095°03'2 6.4
2018-Feb-19 09:29N 29°43' W 095°01'3 6.5
2018-Feb-19 09:00N 29°41' W 094°59'4 7.2
2018-Feb-19 08:30N 29°38' W 094°58'3 5.7
2018-Feb-19 07:59N 29°37' W 095°01'1 1.1
2018-Feb-19 07:29N 29°37' W 095°01'0 0.0
2018-Feb-19 07:00N 29°37' W 095°01'0 0.0
2018-Feb-19 06:30N 29°37' W 095°01'0 0.0
2018-Feb-19 05:56N 29°37' W 095°01'0 0.0
2018-Feb-19 05:29N 29°37' W 095°01'0 0.0
2018-Feb-19 05:00N 29°37' W 095°01'0 0.0
2018-Feb-19 04:30N 29°37' W 095°01'0 0.0
2018-Feb-19 04:00N 29°37' W 095°01'0 0.0
2018-Feb-19 03:30N 29°37' W 095°01'0 0.0
2018-Feb-19 03:00N 29°37' W 095°01'0 0.0
2018-Feb-19 02:30N 29°37' W 095°01'0 0.0
2018-Feb-19 02:00N 29°37' W 095°01'0 0.0
2018-Feb-19 01:26N 29°37' W 095°01'0 0.0
2018-Feb-19 01:00N 29°37' W 095°01'0 0.0
2018-Feb-19 00:29N 29°37' W 095°01'0 0.0
2018-Feb-18 23:58N 29°37' W 095°01'0 0.0
2018-Feb-18 23:30N 29°37' W 095°01'0 0.0
2018-Feb-18 23:00N 29°37' W 095°01'0 0.0
2018-Feb-18 22:30N 29°37' W 095°01'3 6.6
2018-Feb-18 22:00N 29°37' W 094°58'4 7.7
2018-Feb-18 21:30N 29°41' W 094°59'4 7.2
2018-Feb-18 21:00N 29°42' W 095°02'0 0.2
2018-Feb-18 20:29N 29°42' W 095°02'0 0.0
2018-Feb-18 20:00N 29°42' W 095°02'0 0.0
2018-Feb-18 19:29N 29°42' W 095°02'0 0.0
2018-Feb-18 18:59N 29°42' W 095°02'0 0.0
2018-Feb-18 18:30N 29°42' W 095°02'0 0.0
2018-Feb-18 18:00N 29°42' W 095°02'0 0.0
2018-Feb-18 17:30N 29°42' W 095°02'0 0.0
2018-Feb-18 17:00N 29°42' W 095°02'0 0.0
2018-Feb-18 16:30N 29°42' W 095°02'0 0.0
2018-Feb-18 16:00N 29°42' W 095°02'0 0.0
2018-Feb-18 15:21N 29°42' W 095°02'0 0.0
2018-Feb-18 15:00N 29°42' W 095°02'0 0.0
2018-Feb-18 14:30N 29°42' W 095°02'0 0.0
2018-Feb-18 13:59N 29°42' W 095°02'0 0.0
2018-Feb-18 13:30N 29°42' W 095°02'0 0.0
2018-Feb-18 13:00N 29°42' W 095°02'0 0.0
2018-Feb-18 12:29N 29°42' W 095°02'0 0.0
2018-Feb-18 12:00N 29°42' W 095°02'0 0.0
2018-Feb-18 11:30N 29°42' W 095°02'0 0.0
2018-Feb-18 11:00N 29°42' W 095°02'0 0.0
2018-Feb-18 10:30N 29°42' W 095°02'0 0.0
2018-Feb-18 10:00N 29°42' W 095°02'0 0.0
2018-Feb-18 09:29N 29°42' W 095°02'0 0.0
2018-Feb-18 06:06N 29°42' W 095°02'0 0.0
2018-Feb-18 04:50N 29°42' W 095°02'0 0.0
2018-Feb-18 04:30N 29°42' W 095°02'0 0.0
2018-Feb-18 03:55N 29°42' W 095°02'0 0.0
2018-Feb-18 03:24N 29°42' W 095°02'0 0.0
2018-Feb-18 02:57N 29°42' W 095°02'0 0.0
2018-Feb-18 02:25N 29°42' W 095°02'0 0.0
2018-Feb-18 01:59N 29°42' W 095°02'0 0.0
2018-Feb-18 01:29N 29°42' W 095°02'0 0.0
2018-Feb-18 00:59N 29°42' W 095°02'0 0.0
2018-Feb-18 00:30N 29°42' W 095°02'0 0.0
2018-Feb-17 23:54N 29°42' W 095°02'0 0.0
2018-Feb-17 23:30N 29°42' W 095°02'0 0.0
2018-Feb-17 23:00N 29°42' W 095°02'0 0.0
2018-Feb-17 22:30N 29°42' W 095°02'1 2.4
2018-Feb-17 22:00N 29°42' W 095°01'3 6.2
2018-Feb-17 21:30N 29°40' W 094°59'3 5.9
2018-Feb-17 21:01N 29°37' W 094°57'3 5.9
2018-Feb-17 20:30N 29°35' W 094°56'3 5.7
2018-Feb-17 20:00N 29°32' W 094°54'10 0.6
2018-Feb-17 04:30N 29°23' W 094°53'0 0.0
2018-Feb-17 02:33N 29°23' W 094°53'0 0.0
2018-Feb-17 02:28N 29°23' W 094°53'0 0.0
2018-Feb-17 01:59N 29°23' W 094°53'0 0.0
2018-Feb-17 00:39N 29°23' W 094°53'0 0.0
2018-Feb-17 00:20N 29°23' W 094°53'4 0.3
2018-Feb-16 09:00N 29°21' W 094°49'0 0.0
2018-Feb-16 08:30N 29°21' W 094°49'0 0.0
2018-Feb-16 08:00N 29°21' W 094°49'0 0.0
2018-Feb-16 07:27N 29°21' W 094°49'0 0.0
2018-Feb-16 06:55N 29°21' W 094°49'0 0.0
2018-Feb-16 06:22N 29°21' W 094°49'0 0.0
2018-Feb-16 06:00N 29°21' W 094°49'0 0.0
2018-Feb-16 05:30N 29°21' W 094°49'0 0.0
2018-Feb-16 04:57N 29°21' W 094°49'0 0.0
2018-Feb-16 04:30N 29°21' W 094°49'0 0.0
2018-Feb-16 03:42N 29°21' W 094°49'0 0.0
2018-Feb-16 03:18N 29°21' W 094°49'0 0.0
2018-Feb-16 02:59N 29°21' W 094°49'0 0.0
2018-Feb-16 02:20N 29°21' W 094°49'0 0.0
2018-Feb-16 01:51N 29°21' W 094°49'0 0.0
2018-Feb-16 01:07N 29°21' W 094°49'0 0.0
2018-Feb-16 00:57N 29°21' W 094°49'0 0.0
2018-Feb-16 00:13N 29°21' W 094°49'4 4.6
2018-Feb-15 23:17N 29°18' W 094°53'18 1.1
2018-Feb-15 07:28N 29°15' W 095°13'0 0.0
2018-Feb-15 05:48N 29°15' W 095°13'0 0.0
2018-Feb-15 04:48N 29°15' W 095°13'1 0.3
2018-Feb-14 23:46N 29°13' W 095°13'3 5.7
2018-Feb-14 23:16N 29°12' W 095°10'2 5.6
2018-Feb-14 22:52N 29°11' W 095°08'3 5.0
2018-Feb-14 22:21N 29°11' W 095°05'14 6.0
2018-Feb-14 20:04N 29°19' W 094°52'3 6.7
2018-Feb-14 19:35N 29°21' W 094°49'1 3.9
2018-Feb-14 19:15N 29°22' W 094°50'3 6.8
2018-Feb-14 18:47N 29°23' W 094°53'8 0.3
2018-Feb-13 10:11N 29°31' W 094°53'1 7.2
2018-Feb-13 09:59N 29°32' W 094°54'  
Track history (hours):
 
Tides and Currents Weather Stations Pressure Air Temp Water Temp Dewpoint Dewpoint Depression Visibility Wind Speed Wind Dir Waves Ship Positions

Rick Pumphrey

Owner: Blessey Enterprises, Inc., Harahan, LA. More information available from US FCC via Universal Licensing System and Coast Guard Vessel Documentation Center.

Last reported at 2018-Feb-23 04:30 UTC. Time now 2018-Feb-23 10:32 UTC.
Position N 29°43' W 095°01'.

; draft 2.4 m.

Type: Tug. MMSI: 367495480.

Date/timePositionNaut miles runAvg speedWind from/ knotsBaromVisibWave heightAir tempDewpointWater temp
2018-Feb-23 04:30N 29°43' W 095°01'3 6.0
2018-Feb-23 04:00N 29°41' W 094°59'3 6.6
2018-Feb-23 03:30N 29°38' W 094°58'1 2.7
2018-Feb-23 03:00N 29°37' W 094°59'2 4.2
2018-Feb-23 02:30N 29°37' W 095°01'0 0.8
2018-Feb-23 02:00N 29°37' W 095°01'0 0.0
2018-Feb-23 01:30N 29°37' W 095°01'0 0.0
2018-Feb-23 00:52N 29°37' W 095°01'0 0.0
2018-Feb-23 00:29N 29°37' W 095°01'0 0.0
2018-Feb-22 23:59N 29°37' W 095°01'0 0.0
2018-Feb-22 23:29N 29°37' W 095°01'0 0.0
2018-Feb-22 22:58N 29°37' W 095°01'0 0.0
2018-Feb-22 22:29N 29°37' W 095°01'0 0.0
2018-Feb-22 22:00N 29°37' W 095°01'0 0.0
2018-Feb-22 21:26N 29°37' W 095°01'0 0.0
2018-Feb-22 20:57N 29°37' W 095°01'0 0.0
2018-Feb-22 20:30N 29°37' W 095°01'0 0.0
2018-Feb-22 20:00N 29°37' W 095°01'0 0.0
2018-Feb-22 19:30N 29°37' W 095°01'0 0.0
2018-Feb-22 19:00N 29°37' W 095°01'0 0.0
2018-Feb-22 18:30N 29°37' W 095°01'0 0.0
2018-Feb-22 18:00N 29°37' W 095°01'0 0.0
2018-Feb-22 17:30N 29°37' W 095°01'0 0.0
2018-Feb-22 17:00N 29°37' W 095°01'0 0.2
2018-Feb-22 16:28N 29°37' W 095°01'0 0.0
2018-Feb-22 16:00N 29°37' W 095°01'0 0.0
2018-Feb-22 15:29N 29°37' W 095°01'0 0.8
2018-Feb-22 15:00N 29°37' W 095°01'3 6.1
2018-Feb-22 14:30N 29°37' W 094°58'4 7.3
2018-Feb-22 14:00N 29°41' W 094°59'3 6.7
2018-Feb-22 13:29N 29°42' W 095°02'0 0.0
2018-Feb-21 22:32N 29°42' W 095°02'0 0.0
2018-Feb-21 22:29N 29°42' W 095°02'0 0.0
2018-Feb-21 22:00N 29°42' W 095°02'6 0.8
2018-Feb-21 14:34N 29°37' W 095°01'0 0.0
2018-Feb-21 14:30N 29°37' W 095°01'0 0.0
2018-Feb-21 14:00N 29°37' W 095°01'0 0.0
2018-Feb-21 13:27N 29°37' W 095°01'0 0.0
2018-Feb-21 13:00N 29°37' W 095°01'0 0.0
2018-Feb-21 12:30N 29°37' W 095°01'0 0.0
2018-Feb-21 12:00N 29°37' W 095°01'0 0.0
2018-Feb-21 11:30N 29°37' W 095°01'0 0.0
2018-Feb-21 11:00N 29°37' W 095°01'0 0.0
2018-Feb-21 10:30N 29°37' W 095°01'0 0.0
2018-Feb-21 10:00N 29°37' W 095°01'0 0.0
2018-Feb-21 09:30N 29°37' W 095°01'0 0.0
2018-Feb-21 09:00N 29°37' W 095°01'0 0.0
2018-Feb-21 08:28N 29°37' W 095°01'0 0.0
2018-Feb-21 08:00N 29°37' W 095°01'0 0.0
2018-Feb-21 07:30N 29°37' W 095°01'0 0.0
2018-Feb-21 07:00N 29°37' W 095°01'0 0.0
2018-Feb-21 06:30N 29°37' W 095°01'0 0.0
2018-Feb-21 06:00N 29°37' W 095°01'0 0.0
2018-Feb-21 05:27N 29°37' W 095°01'0 0.0
2018-Feb-21 04:58N 29°37' W 095°01'0 0.0
2018-Feb-21 04:27N 29°37' W 095°01'0 0.0
2018-Feb-21 03:59N 29°37' W 095°01'0 0.0
2018-Feb-21 03:30N 29°37' W 095°01'0 0.0
2018-Feb-21 03:00N 29°37' W 095°01'0 0.0
2018-Feb-21 02:30N 29°37' W 095°01'0 0.0
2018-Feb-21 02:00N 29°37' W 095°01'0 0.0
2018-Feb-21 01:30N 29°37' W 095°01'0 0.0
2018-Feb-21 01:00N 29°37' W 095°01'0 0.0
2018-Feb-21 00:30N 29°37' W 095°01'0 0.0
2018-Feb-21 00:00N 29°37' W 095°01'0 0.0
2018-Feb-20 23:30N 29°37' W 095°01'0 0.0
2018-Feb-20 23:00N 29°37' W 095°01'0 0.0
2018-Feb-20 22:30N 29°37' W 095°01'0 0.0
2018-Feb-20 22:00N 29°37' W 095°01'0 0.0
2018-Feb-20 21:30N 29°37' W 095°01'0 0.0
2018-Feb-20 21:00N 29°37' W 095°01'0 0.0
2018-Feb-20 20:30N 29°37' W 095°01'0 0.0
2018-Feb-20 20:00N 29°37' W 095°01'0 0.0
2018-Feb-20 19:30N 29°37' W 095°01'0 0.0
2018-Feb-20 19:00N 29°37' W 095°01'0 0.0
2018-Feb-20 18:30N 29°37' W 095°01'0 0.0
2018-Feb-20 18:00N 29°37' W 095°01'3 5.8
2018-Feb-20 17:30N 29°37' W 094°58'3 6.3
2018-Feb-20 17:00N 29°40' W 094°59'3 6.5
2018-Feb-20 16:30N 29°42' W 095°01'1 1.8
2018-Feb-20 15:59N 29°42' W 095°02'0 0.0
2018-Feb-20 14:04N 29°42' W 095°02'0 0.0
2018-Feb-20 14:00N 29°42' W 095°02'0 0.0
2018-Feb-20 13:30N 29°42' W 095°02'0 0.0
2018-Feb-20 08:21N 29°42' W 095°02'0 0.0
2018-Feb-20 07:59N 29°42' W 095°02'0 0.0
2018-Feb-20 07:29N 29°42' W 095°02'0 0.0
2018-Feb-20 07:00N 29°42' W 095°02'0 0.0
2018-Feb-20 06:30N 29°42' W 095°02'0 0.0
2018-Feb-20 06:00N 29°42' W 095°02'0 0.0
2018-Feb-20 05:30N 29°42' W 095°02'0 0.0
2018-Feb-20 05:00N 29°42' W 095°02'0 0.0
2018-Feb-20 04:29N 29°42' W 095°02'0 0.0
2018-Feb-20 03:57N 29°42' W 095°02'0 0.0
2018-Feb-20 03:30N 29°42' W 095°02'0 0.0
2018-Feb-20 03:00N 29°42' W 095°02'0 0.0
2018-Feb-20 02:28N 29°42' W 095°02'0 0.0
2018-Feb-20 01:59N 29°42' W 095°02'0 0.0
2018-Feb-20 01:28N 29°42' W 095°02'0 0.0
2018-Feb-20 00:45N 29°42' W 095°02'0 0.0
2018-Feb-20 00:30N 29°42' W 095°02'0 0.0
2018-Feb-19 23:59N 29°42' W 095°02'0 0.0
2018-Feb-19 23:30N 29°42' W 095°02'0 0.0
2018-Feb-19 23:00N 29°42' W 095°02'0 0.0
2018-Feb-19 22:28N 29°42' W 095°02'0 0.0
2018-Feb-19 22:00N 29°42' W 095°02'0 0.0
2018-Feb-19 21:21N 29°42' W 095°02'0 0.0
2018-Feb-19 20:58N 29°42' W 095°02'0 0.0
2018-Feb-19 20:30N 29°42' W 095°02'0 0.0
2018-Feb-19 19:57N 29°42' W 095°02'0 0.0
2018-Feb-19 18:44N 29°42' W 095°02'0 0.0
2018-Feb-19 18:29N 29°42' W 095°02'0 0.0
2018-Feb-19 17:54N 29°42' W 095°02'0 0.0
2018-Feb-19 17:26N 29°42' W 095°02'0 0.0
2018-Feb-19 17:00N 29°42' W 095°02'0 0.0
2018-Feb-19 16:29N 29°42' W 095°02'0 0.0
2018-Feb-19 16:00N 29°42' W 095°02'0 0.0
2018-Feb-19 15:30N 29°42' W 095°02'0 0.0
2018-Feb-19 14:59N 29°42' W 095°02'0 0.0
2018-Feb-19 14:20N 29°42' W 095°02'0 0.2
2018-Feb-19 13:59N 29°42' W 095°02'1 2.8
2018-Feb-19 13:28N 29°44' W 095°02'4 5.5
2018-Feb-19 12:40N 29°47' W 095°04'0 0.5
2018-Feb-19 12:18N 29°47' W 095°05'0 0.3
2018-Feb-19 11:58N 29°47' W 095°05'0 0.0
2018-Feb-19 10:57N 29°47' W 095°05'0 0.9
2018-Feb-19 10:24N 29°47' W 095°04'3 5.0
2018-Feb-19 09:48N 29°44' W 095°03'2 6.4
2018-Feb-19 09:29N 29°43' W 095°01'3 6.5
2018-Feb-19 09:00N 29°41' W 094°59'4 7.2
2018-Feb-19 08:30N 29°38' W 094°58'3 5.7
2018-Feb-19 07:59N 29°37' W 095°01'1 1.1
2018-Feb-19 07:29N 29°37' W 095°01'0 0.0
2018-Feb-19 07:00N 29°37' W 095°01'0 0.0
2018-Feb-19 06:30N 29°37' W 095°01'0 0.0
2018-Feb-19 05:56N 29°37' W 095°01'0 0.0
2018-Feb-19 05:29N 29°37' W 095°01'0 0.0
2018-Feb-19 05:00N 29°37' W 095°01'0 0.0
2018-Feb-19 04:30N 29°37' W 095°01'0 0.0
2018-Feb-19 04:00N 29°37' W 095°01'0 0.0
2018-Feb-19 03:30N 29°37' W 095°01'0 0.0
2018-Feb-19 03:00N 29°37' W 095°01'0 0.0
2018-Feb-19 02:30N 29°37' W 095°01'0 0.0
2018-Feb-19 02:00N 29°37' W 095°01'0 0.0
2018-Feb-19 01:26N 29°37' W 095°01'0 0.0
2018-Feb-19 01:00N 29°37' W 095°01'0 0.0
2018-Feb-19 00:29N 29°37' W 095°01'0 0.0
2018-Feb-18 23:58N 29°37' W 095°01'0 0.0
2018-Feb-18 23:30N 29°37' W 095°01'0 0.0
2018-Feb-18 23:00N 29°37' W 095°01'0 0.0
2018-Feb-18 22:30N 29°37' W 095°01'3 6.6
2018-Feb-18 22:00N 29°37' W 094°58'4 7.7
2018-Feb-18 21:30N 29°41' W 094°59'4 7.2
2018-Feb-18 21:00N 29°42' W 095°02'0 0.2
2018-Feb-18 20:29N 29°42' W 095°02'0 0.0
2018-Feb-18 20:00N 29°42' W 095°02'0 0.0
2018-Feb-18 19:29N 29°42' W 095°02'0 0.0
2018-Feb-18 18:59N 29°42' W 095°02'0 0.0
2018-Feb-18 18:30N 29°42' W 095°02'0 0.0
2018-Feb-18 18:00N 29°42' W 095°02'0 0.0
2018-Feb-18 17:30N 29°42' W 095°02'0 0.0
2018-Feb-18 17:00N 29°42' W 095°02'0 0.0
2018-Feb-18 16:30N 29°42' W 095°02'0 0.0
2018-Feb-18 16:00N 29°42' W 095°02'0 0.0
2018-Feb-18 15:21N 29°42' W 095°02'0 0.0
2018-Feb-18 15:00N 29°42' W 095°02'0 0.0
2018-Feb-18 14:30N 29°42' W 095°02'0 0.0
2018-Feb-18 13:59N 29°42' W 095°02'0 0.0
2018-Feb-18 13:30N 29°42' W 095°02'0 0.0
2018-Feb-18 13:00N 29°42' W 095°02'0 0.0
2018-Feb-18 12:29N 29°42' W 095°02'0 0.0
2018-Feb-18 12:00N 29°42' W 095°02'0 0.0
2018-Feb-18 11:30N 29°42' W 095°02'0 0.0
2018-Feb-18 11:00N 29°42' W 095°02'0 0.0
2018-Feb-18 10:30N 29°42' W 095°02'0 0.0
2018-Feb-18 10:00N 29°42' W 095°02'0 0.0
2018-Feb-18 09:29N 29°42' W 095°02'0 0.0
2018-Feb-18 06:06N 29°42' W 095°02'0 0.0
2018-Feb-18 04:50N 29°42' W 095°02'0 0.0
2018-Feb-18 04:30N 29°42' W 095°02'0 0.0
2018-Feb-18 03:55N 29°42' W 095°02'0 0.0
2018-Feb-18 03:24N 29°42' W 095°02'0 0.0
2018-Feb-18 02:57N 29°42' W 095°02'0 0.0
2018-Feb-18 02:25N 29°42' W 095°02'0 0.0
2018-Feb-18 01:59N 29°42' W 095°02'0 0.0
2018-Feb-18 01:29N 29°42' W 095°02'0 0.0
2018-Feb-18 00:59N 29°42' W 095°02'0 0.0
2018-Feb-18 00:30N 29°42' W 095°02'0 0.0
2018-Feb-17 23:54N 29°42' W 095°02'0 0.0
2018-Feb-17 23:30N 29°42' W 095°02'0 0.0
2018-Feb-17 23:00N 29°42' W 095°02'0 0.0
2018-Feb-17 22:30N 29°42' W 095°02'1 2.4
2018-Feb-17 22:00N 29°42' W 095°01'3 6.2
2018-Feb-17 21:30N 29°40' W 094°59'3 5.9
2018-Feb-17 21:01N 29°37' W 094°57'3 5.9
2018-Feb-17 20:30N 29°35' W 094°56'3 5.7
2018-Feb-17 20:00N 29°32' W 094°54'10 0.6
2018-Feb-17 04:30N 29°23' W 094°53'0 0.0
2018-Feb-17 02:33N 29°23' W 094°53'0 0.0
2018-Feb-17 02:28N 29°23' W 094°53'0 0.0
2018-Feb-17 01:59N 29°23' W 094°53'0 0.0
2018-Feb-17 00:39N 29°23' W 094°53'0 0.0
2018-Feb-17 00:20N 29°23' W 094°53'4 0.3
2018-Feb-16 09:00N 29°21' W 094°49'0 0.0
2018-Feb-16 08:30N 29°21' W 094°49'0 0.0
2018-Feb-16 08:00N 29°21' W 094°49'0 0.0
2018-Feb-16 07:27N 29°21' W 094°49'0 0.0
2018-Feb-16 06:55N 29°21' W 094°49'0 0.0
2018-Feb-16 06:22N 29°21' W 094°49'0 0.0
2018-Feb-16 06:00N 29°21' W 094°49'0 0.0
2018-Feb-16 05:30N 29°21' W 094°49'0 0.0
2018-Feb-16 04:57N 29°21' W 094°49'0 0.0
2018-Feb-16 04:30N 29°21' W 094°49'0 0.0
2018-Feb-16 03:42N 29°21' W 094°49'0 0.0
2018-Feb-16 03:18N 29°21' W 094°49'0 0.0
2018-Feb-16 02:59N 29°21' W 094°49'0 0.0
2018-Feb-16 02:20N 29°21' W 094°49'0 0.0
2018-Feb-16 01:51N 29°21' W 094°49'0 0.0
2018-Feb-16 01:07N 29°21' W 094°49'0 0.0
2018-Feb-16 00:57N 29°21' W 094°49'0 0.0
2018-Feb-16 00:13N 29°21' W 094°49'4 4.6
2018-Feb-15 23:17N 29°18' W 094°53'18 1.1
2018-Feb-15 07:28N 29°15' W 095°13'0 0.0
2018-Feb-15 05:48N 29°15' W 095°13'0 0.0
2018-Feb-15 04:48N 29°15' W 095°13'1 0.3
2018-Feb-14 23:46N 29°13' W 095°13'3 5.7
2018-Feb-14 23:16N 29°12' W 095°10'2 5.6
2018-Feb-14 22:52N 29°11' W 095°08'3 5.0
2018-Feb-14 22:21N 29°11' W 095°05'14 6.0
2018-Feb-14 20:04N 29°19' W 094°52'3 6.7
2018-Feb-14 19:35N 29°21' W 094°49'1 3.9
2018-Feb-14 19:15N 29°22' W 094°50'3 6.8
2018-Feb-14 18:47N 29°23' W 094°53'8 0.3
2018-Feb-13 10:11N 29°31' W 094°53'1 7.2
2018-Feb-13 09:59N 29°32' W 094°54'  

Dump ship's entire track history